Perpignan, France

6:23 AM CEST on March 30, 2015 (GMT +0200)
Rivesaltes | | Change Station
CLOSE
Current Station
Airport
Location: Perpignan,
Elevation: 154 ft
Nearby Weather Stations

Elev 154 ft 42.74 °N, 2.87 °E | Updated 23 minutes ago

Partly Cloudy
Partly Cloudy
64 °F
Feels Like 64 °F
N
26
Wind Variable Wind from WNW
Gusts 41 mph

Today
High -- | Low -- °F
--% Chance of Precip.
Yesterday
High -- | Low -- °F
Precip. -- in
7:35 AM 8:11 PM
Waxing Gibbous, 76% visible
Pressure 30.01 in
Visibility 6.2 miles
Clouds Few 9800 ft
Dew Point 39 °F
Humidity 40%
Rainfall 0.00 in
Snow Depth Not available.
UV 0 out of 12
Pollen Not available.
Air Quality Not available.
Flu Activity Not available.
METAR LFMP 300400Z AUTO 29023G36KT 9999 FEW098 18/04 Q1016

More Conditions Fewer Conditions

Pressure 30.01 in
Visibility 6.2 miles
Clouds Few 9800 ft
Dew Point 39 °F
Humidity 40%
Rainfall 0.00 in
Snow Depth Not available.
UV 0 out of 12
Pollen Not available.
Air Quality Not available.
Flu Activity Not available.
METAR LFMP 300400Z AUTO 29023G36KT 9999 FEW098 18/04 Q1016

More Conditions Fewer Conditions

10-Day Weather Forecast

Almanac

Astronomy

Mar. 30, 2015 Rise Set
Actual Time
Civil Twilight
Nautical Twilight
Astronomical Twilight
Moon
Length Of Visible Light
Length of Day
Tomorrow will be .
, % of the Moon is Illuminated

Today's Extremes

Country Highs Country Lows

Community

WunderPhotos

Upload Photos

1,809,433 photos uploaded!

WunderBlogs® & News

Nearby

Air Quality

  Air Quality AQ Index Pollutant
Not available.

Snow Depth

Station Depth Elevation

Earthquake Activity

City Distance Mag. Time & Date
Minimum magnitude displayed is 2.5.

Coastal Water Temperatures

Place Temperature

Stations

Nearby Weather Stations

Station Location Temp. Windchill Dew Point Humidity Wind Precip. Elev Updated Type